sensor_id;sensor_type;location;lat;lon;timestamp;P1;durP1;ratioP1;P2;durP2;ratioP2
11066;SDS011;29763;50.904;5.530;2022-09-25T00:01:23;9.70;;;3.78;;
11066;SDS011;29763;50.904;5.530;2022-09-25T00:03:53;6.63;;;3.67;;
11066;SDS011;29763;50.904;5.530;2022-09-25T00:06:20;7.60;;;3.97;;
11066;SDS011;29763;50.904;5.530;2022-09-25T00:08:56;6.75;;;3.90;;
11066;SDS011;29763;50.904;5.530;2022-09-25T00:11:31;10.93;;;4.68;;
11066;SDS011;29763;50.904;5.530;2022-09-25T00:14:01;6.35;;;4.22;;
11066;SDS011;29763;50.904;5.530;2022-09-25T00:16:45;10.13;;;4.80;;
11066;SDS011;29763;50.904;5.530;2022-09-25T00:19:19;9.98;;;5.05;;
11066;SDS011;29763;50.904;5.530;2022-09-25T00:22:06;9.88;;;4.88;;
11066;SDS011;29763;50.904;5.530;2022-09-25T00:24:33;16.05;;;5.72;;
11066;SDS011;29763;50.904;5.530;2022-09-25T00:26:59;7.65;;;5.28;;
11066;SDS011;29763;50.904;5.530;2022-09-25T00:29:30;9.30;;;5.10;;
11066;SDS011;29763;50.904;5.530;2022-09-25T00:31:57;9.82;;;5.32;;
11066;SDS011;29763;50.904;5.530;2022-09-25T00:34:27;8.30;;;5.72;;
11066;SDS011;29763;50.904;5.530;2022-09-25T00:36:59;11.68;;;5.80;;
11066;SDS011;29763;50.904;5.530;2022-09-25T00:39:25;11.25;;;5.85;;
11066;SDS011;29763;50.904;5.530;2022-09-25T00:41:51;7.63;;;5.68;;
11066;SDS011;29763;50.904;5.530;2022-09-25T00:47:09;14.80;;;6.35;;
11066;SDS011;29763;50.904;5.530;2022-09-25T00:52:40;8.40;;;5.78;;
11066;SDS011;29763;50.904;5.530;2022-09-25T00:55:06;10.40;;;5.95;;
11066;SDS011;29763;50.904;5.530;2022-09-25T00:57:34;10.18;;;6.32;;
11066;SDS011;29763;50.904;5.530;2022-09-25T01:00:05;9.60;;;5.93;;
11066;SDS011;29763;50.904;5.530;2022-09-25T01:02:38;10.82;;;6.63;;
11066;SDS011;29763;50.904;5.530;2022-09-25T01:05:08;10.07;;;6.20;;
11066;SDS011;29763;50.904;5.530;2022-09-25T01:07:39;9.70;;;5.95;;
11066;SDS011;29763;50.904;5.530;2022-09-25T01:10:09;12.02;;;6.07;;
11066;SDS011;29763;50.904;5.530;2022-09-25T01:12:35;12.85;;;6.50;;
11066;SDS011;29763;50.904;5.530;2022-09-25T01:15:06;13.50;;;6.55;;
11066;SDS011;29763;50.904;5.530;2022-09-25T01:23:46;9.90;;;6.20;;
11066;SDS011;29763;50.904;5.530;2022-09-25T01:29:43;11.07;;;5.70;;
11066;SDS011;29763;50.904;5.530;2022-09-25T01:34:49;11.85;;;6.03;;
11066;SDS011;29763;50.904;5.530;2022-09-25T01:42:52;6.55;;;5.03;;
11066;SDS011;29763;50.904;5.530;2022-09-25T01:45:27;8.60;;;5.47;;
11066;SDS011;29763;50.904;5.530;2022-09-25T01:48:03;10.68;;;5.38;;
11066;SDS011;29763;50.904;5.530;2022-09-25T01:50:41;9.05;;;5.10;;
11066;SDS011;29763;50.904;5.530;2022-09-25T01:53:19;12.00;;;5.00;;
11066;SDS011;29763;50.904;5.530;2022-09-25T01:55:57;14.50;;;5.72;;
11066;SDS011;29763;50.904;5.530;2022-09-25T01:58:31;14.60;;;5.38;;
11066;SDS011;29763;50.904;5.530;2022-09-25T02:01:09;9.38;;;5.05;;
11066;SDS011;29763;50.904;5.530;2022-09-25T02:04:02;10.93;;;5.22;;
11066;SDS011;29763;50.904;5.530;2022-09-25T02:06:34;10.27;;;5.28;;
11066;SDS011;29763;50.904;5.530;2022-09-25T02:09:07;8.13;;;4.68;;
11066;SDS011;29763;50.904;5.530;2022-09-25T02:11:44;13.55;;;5.30;;
11066;SDS011;29763;50.904;5.530;2022-09-25T02:17:16;12.70;;;4.80;;
11066;SDS011;29763;50.904;5.530;2022-09-25T02:20:06;9.07;;;4.55;;
11066;SDS011;29763;50.904;5.530;2022-09-25T02:22:52;8.65;;;4.45;;
11066;SDS011;29763;50.904;5.530;2022-09-25T02:25:24;12.45;;;4.45;;
11066;SDS011;29763;50.904;5.530;2022-09-25T02:28:00;8.80;;;4.32;;
11066;SDS011;29763;50.904;5.530;2022-09-25T02:30:26;12.75;;;4.75;;
11066;SDS011;29763;50.904;5.530;2022-09-25T02:32:52;8.63;;;4.25;;
11066;SDS011;29763;50.904;5.530;2022-09-25T02:35:18;10.27;;;4.35;;
11066;SDS011;29763;50.904;5.530;2022-09-25T02:37:45;8.80;;;4.03;;
11066;SDS011;29763;50.904;5.530;2022-09-25T02:40:13;9.48;;;3.85;;
11066;SDS011;29763;50.904;5.530;2022-09-25T02:42:47;9.75;;;4.20;;
11066;SDS011;29763;50.904;5.530;2022-09-25T02:59:33;9.73;;;3.58;;
11066;SDS011;29763;50.904;5.530;2022-09-25T03:02:08;9.48;;;3.90;;
11066;SDS011;29763;50.904;5.530;2022-09-25T03:04:36;7.03;;;3.80;;
11066;SDS011;29763;50.904;5.530;2022-09-25T03:07:04;11.00;;;3.92;;
11066;SDS011;29763;50.904;5.530;2022-09-25T03:09:35;7.47;;;3.42;;
11066;SDS011;29763;50.904;5.530;2022-09-25T03:12:12;9.30;;;3.72;;
11066;SDS011;29763;50.904;5.530;2022-09-25T03:14:39;7.60;;;3.50;;
11066;SDS011;29763;50.904;5.530;2022-09-25T03:17:18;5.85;;;3.33;;
11066;SDS011;29763;50.904;5.530;2022-09-25T03:19:47;11.77;;;3.63;;
11066;SDS011;29763;50.904;5.530;2022-09-25T03:22:12;10.18;;;3.50;;
11066;SDS011;29763;50.904;5.530;2022-09-25T03:24:56;7.55;;;3.80;;
11066;SDS011;29763;50.904;5.530;2022-09-25T03:27:23;12.50;;;3.50;;
11066;SDS011;29763;50.904;5.530;2022-09-25T03:29:53;11.65;;;3.50;;
11066;SDS011;29763;50.904;5.530;2022-09-25T03:32:19;7.25;;;3.10;;
11066;SDS011;29763;50.904;5.530;2022-09-25T03:34:46;9.38;;;3.70;;
11066;SDS011;29763;50.904;5.530;2022-09-25T03:37:14;6.80;;;3.30;;
11066;SDS011;29763;50.904;5.530;2022-09-25T03:39:40;10.05;;;3.85;;
11066;SDS011;29763;50.904;5.530;2022-09-25T03:42:06;10.20;;;3.42;;
11066;SDS011;29763;50.904;5.530;2022-09-25T03:44:31;6.18;;;3.17;;
11066;SDS011;29763;50.904;5.530;2022-09-25T03:46:57;8.32;;;3.15;;
11066;SDS011;29763;50.904;5.530;2022-09-25T03:49:23;11.27;;;3.55;;
11066;SDS011;29763;50.904;5.530;2022-09-25T03:51:50;8.20;;;3.03;;
11066;SDS011;29763;50.904;5.530;2022-09-25T03:54:19;9.35;;;3.13;;
11066;SDS011;29763;50.904;5.530;2022-09-25T03:56:44;8.00;;;3.10;;
11066;SDS011;29763;50.904;5.530;2022-09-25T03:59:11;10.23;;;3.58;;
11066;SDS011;29763;50.904;5.530;2022-09-25T04:01:37;7.85;;;3.13;;
11066;SDS011;29763;50.904;5.530;2022-09-25T04:04:05;7.25;;;2.97;;
11066;SDS011;29763;50.904;5.530;2022-09-25T04:06:30;7.18;;;3.13;;
11066;SDS011;29763;50.904;5.530;2022-09-25T04:08:56;9.30;;;3.20;;
11066;SDS011;29763;50.904;5.530;2022-09-25T04:11:23;8.90;;;2.92;;
11066;SDS011;29763;50.904;5.530;2022-09-25T04:13:49;7.10;;;2.90;;
11066;SDS011;29763;50.904;5.530;2022-09-25T04:16:15;8.05;;;3.15;;
11066;SDS011;29763;50.904;5.530;2022-09-25T04:18:41;12.18;;;3.63;;
11066;SDS011;29763;50.904;5.530;2022-09-25T04:21:15;10.48;;;3.35;;
11066;SDS011;29763;50.904;5.530;2022-09-25T04:23:43;13.45;;;3.38;;
11066;SDS011;29763;50.904;5.530;2022-09-25T04:26:32;7.15;;;2.85;;
11066;SDS011;29763;50.904;5.530;2022-09-25T04:28:59;9.68;;;2.97;;
11066;SDS011;29763;50.904;5.530;2022-09-25T04:31:25;8.35;;;3.17;;
11066;SDS011;29763;50.904;5.530;2022-09-25T04:33:53;6.25;;;2.45;;
11066;SDS011;29763;50.904;5.530;2022-09-25T04:36:22;7.78;;;2.70;;
11066;SDS011;29763;50.904;5.530;2022-09-25T04:38:50;11.38;;;3.00;;
11066;SDS011;29763;50.904;5.530;2022-09-25T04:41:16;6.88;;;2.92;;
11066;SDS011;29763;50.904;5.530;2022-09-25T04:43:43;9.45;;;2.97;;
11066;SDS011;29763;50.904;5.530;2022-09-25T04:46:10;7.82;;;2.95;;
11066;SDS011;29763;50.904;5.530;2022-09-25T04:48:37;11.93;;;3.20;;
11066;SDS011;29763;50.904;5.530;2022-09-25T04:51:03;8.88;;;3.10;;
11066;SDS011;29763;50.904;5.530;2022-09-25T04:53:32;9.35;;;2.90;;
11066;SDS011;29763;50.904;5.530;2022-09-25T04:56:01;9.00;;;3.00;;
11066;SDS011;29763;50.904;5.530;2022-09-25T04:58:32;10.63;;;2.92;;
11066;SDS011;29763;50.904;5.530;2022-09-25T05:01:02;8.50;;;3.35;;
11066;SDS011;29763;50.904;5.530;2022-09-25T05:03:34;7.97;;;3.22;;
11066;SDS011;29763;50.904;5.530;2022-09-25T05:06:00;7.88;;;3.47;;
11066;SDS011;29763;50.904;5.530;2022-09-25T05:08:26;6.35;;;2.63;;
11066;SDS011;29763;50.904;5.530;2022-09-25T05:10:54;9.68;;;2.92;;
11066;SDS011;29763;50.904;5.530;2022-09-25T05:13:23;7.97;;;2.70;;
11066;SDS011;29763;50.904;5.530;2022-09-25T05:15:55;7.15;;;2.88;;
11066;SDS011;29763;50.904;5.530;2022-09-25T05:18:24;11.63;;;2.92;;
11066;SDS011;29763;50.904;5.530;2022-09-25T05:20:50;14.15;;;3.25;;
11066;SDS011;29763;50.904;5.530;2022-09-25T05:23:22;10.25;;;3.05;;
11066;SDS011;29763;50.904;5.530;2022-09-25T05:25:52;8.90;;;3.28;;
11066;SDS011;29763;50.904;5.530;2022-09-25T05:28:19;11.48;;;3.17;;
11066;SDS011;29763;50.904;5.530;2022-09-25T05:30:45;7.40;;;3.30;;
11066;SDS011;29763;50.904;5.530;2022-09-25T05:33:18;10.15;;;3.63;;
11066;SDS011;29763;50.904;5.530;2022-09-25T05:35:44;6.57;;;2.83;;
11066;SDS011;29763;50.904;5.530;2022-09-25T05:38:12;11.95;;;3.75;;
11066;SDS011;29763;50.904;5.530;2022-09-25T05:40:38;7.25;;;3.25;;
11066;SDS011;29763;50.904;5.530;2022-09-25T05:43:04;9.27;;;3.42;;
11066;SDS011;29763;50.904;5.530;2022-09-25T05:45:42;7.25;;;3.35;;
11066;SDS011;29763;50.904;5.530;2022-09-25T05:48:10;7.85;;;3.08;;
11066;SDS011;29763;50.904;5.530;2022-09-25T05:50:38;7.40;;;3.30;;
11066;SDS011;29763;50.904;5.530;2022-09-25T05:53:04;12.07;;;3.70;;
11066;SDS011;29763;50.904;5.530;2022-09-25T05:55:30;7.68;;;3.70;;
11066;SDS011;29763;50.904;5.530;2022-09-25T05:58:00;12.13;;;3.40;;
11066;SDS011;29763;50.904;5.530;2022-09-25T06:00:27;7.80;;;3.15;;
11066;SDS011;29763;50.904;5.530;2022-09-25T06:02:53;9.77;;;3.45;;
11066;SDS011;29763;50.904;5.530;2022-09-25T06:05:23;8.68;;;3.60;;
11066;SDS011;29763;50.904;5.530;2022-09-25T06:08:00;7.97;;;4.00;;
11066;SDS011;29763;50.904;5.530;2022-09-25T06:10:33;8.80;;;3.08;;
11066;SDS011;29763;50.904;5.530;2022-09-25T06:12:59;8.75;;;3.63;;
11066;SDS011;29763;50.904;5.530;2022-09-25T06:15:50;7.60;;;3.20;;
11066;SDS011;29763;50.904;5.530;2022-09-25T06:18:24;10.10;;;3.58;;
11066;SDS011;29763;50.904;5.530;2022-09-25T06:21:03;4.57;;;2.92;;
11066;SDS011;29763;50.904;5.530;2022-09-25T06:23:41;7.65;;;3.53;;
11066;SDS011;29763;50.904;5.530;2022-09-25T06:26:16;7.15;;;3.10;;
11066;SDS011;29763;50.904;5.530;2022-09-25T06:29:46;7.40;;;3.45;;
11066;SDS011;29763;50.904;5.530;2022-09-25T06:32:15;9.55;;;3.28;;
11066;SDS011;29763;50.904;5.530;2022-09-25T06:34:50;6.53;;;3.05;;
11066;SDS011;29763;50.904;5.530;2022-09-25T06:37:16;10.02;;;2.75;;
11066;SDS011;29763;50.904;5.530;2022-09-25T06:39:45;5.32;;;2.67;;
11066;SDS011;29763;50.904;5.530;2022-09-25T06:42:21;6.55;;;2.80;;
11066;SDS011;29763;50.904;5.530;2022-09-25T06:44:48;5.53;;;2.92;;
11066;SDS011;29763;50.904;5.530;2022-09-25T06:47:24;6.47;;;2.85;;
11066;SDS011;29763;50.904;5.530;2022-09-25T06:49:53;8.55;;;2.72;;
11066;SDS011;29763;50.904;5.530;2022-09-25T06:52:21;8.80;;;2.80;;
11066;SDS011;29763;50.904;5.530;2022-09-25T06:55:00;7.03;;;2.58;;
11066;SDS011;29763;50.904;5.530;2022-09-25T06:57:31;5.60;;;2.30;;
11066;SDS011;29763;50.904;5.530;2022-09-25T07:00:02;7.97;;;3.03;;
11066;SDS011;29763;50.904;5.530;2022-09-25T07:02:49;8.00;;;2.75;;
11066;SDS011;29763;50.904;5.530;2022-09-25T07:05:40;8.05;;;2.78;;
11066;SDS011;29763;50.904;5.530;2022-09-25T07:08:11;6.45;;;2.60;;
11066;SDS011;29763;50.904;5.530;2022-09-25T07:13:48;5.85;;;2.08;;
11066;SDS011;29763;50.904;5.530;2022-09-25T07:16:17;4.53;;;2.30;;
11066;SDS011;29763;50.904;5.530;2022-09-25T07:18:54;6.85;;;2.05;;
11066;SDS011;29763;50.904;5.530;2022-09-25T07:21:37;5.03;;;2.22;;
11066;SDS011;29763;50.904;5.530;2022-09-25T07:24:05;8.07;;;2.10;;
11066;SDS011;29763;50.904;5.530;2022-09-25T07:26:35;4.63;;;2.13;;
11066;SDS011;29763;50.904;5.530;2022-09-25T07:29:17;4.40;;;1.73;;
11066;SDS011;29763;50.904;5.530;2022-09-25T07:31:54;5.60;;;2.10;;
11066;SDS011;29763;50.904;5.530;2022-09-25T07:34:21;5.55;;;2.00;;
11066;SDS011;29763;50.904;5.530;2022-09-25T07:36:51;8.98;;;2.47;;
11066;SDS011;29763;50.904;5.530;2022-09-25T07:39:20;5.55;;;2.10;;
11066;SDS011;29763;50.904;5.530;2022-09-25T07:41:48;7.18;;;2.10;;
11066;SDS011;29763;50.904;5.530;2022-09-25T07:44:18;6.43;;;2.17;;
11066;SDS011;29763;50.904;5.530;2022-09-25T07:46:45;8.68;;;2.17;;
11066;SDS011;29763;50.904;5.530;2022-09-25T07:49:15;6.15;;;2.10;;
11066;SDS011;29763;50.904;5.530;2022-09-25T07:51:41;6.55;;;1.90;;
11066;SDS011;29763;50.904;5.530;2022-09-25T07:54:10;9.23;;;2.00;;
11066;SDS011;29763;50.904;5.530;2022-09-25T07:56:35;5.00;;;1.77;;
11066;SDS011;29763;50.904;5.530;2022-09-25T07:59:02;5.53;;;1.80;;
11066;SDS011;29763;50.904;5.530;2022-09-25T08:01:29;4.93;;;1.90;;
11066;SDS011;29763;50.904;5.530;2022-09-25T08:03:58;4.05;;;1.80;;
11066;SDS011;29763;50.904;5.530;2022-09-25T08:06:25;7.25;;;1.90;;
11066;SDS011;29763;50.904;5.530;2022-09-25T08:08:53;7.75;;;1.98;;
11066;SDS011;29763;50.904;5.530;2022-09-25T08:11:19;6.78;;;1.80;;
11066;SDS011;29763;50.904;5.530;2022-09-25T08:13:48;5.15;;;1.60;;
11066;SDS011;29763;50.904;5.530;2022-09-25T08:16:16;7.07;;;1.80;;
11066;SDS011;29763;50.904;5.530;2022-09-25T08:18:48;4.50;;;1.77;;
11066;SDS011;29763;50.904;5.530;2022-09-25T08:21:15;5.57;;;1.42;;
11066;SDS011;29763;50.904;5.530;2022-09-25T08:23:52;3.92;;;1.60;;
11066;SDS011;29763;50.904;5.530;2022-09-25T08:26:21;6.47;;;1.60;;
11066;SDS011;29763;50.904;5.530;2022-09-25T08:29:10;4.57;;;1.70;;
11066;SDS011;29763;50.904;5.530;2022-09-25T08:31:37;5.45;;;1.50;;
11066;SDS011;29763;50.904;5.530;2022-09-25T08:34:07;4.05;;;1.45;;
11066;SDS011;29763;50.904;5.530;2022-09-25T08:36:34;3.63;;;1.63;;
11066;SDS011;29763;50.904;5.530;2022-09-25T08:39:01;5.78;;;1.77;;
11066;SDS011;29763;50.904;5.530;2022-09-25T08:41:28;6.05;;;1.60;;
11066;SDS011;29763;50.904;5.530;2022-09-25T08:47:13;4.75;;;1.80;;
11066;SDS011;29763;50.904;5.530;2022-09-25T08:53:03;6.80;;;1.70;;
11066;SDS011;29763;50.904;5.530;2022-09-25T08:55:40;6.20;;;1.70;;
11066;SDS011;29763;50.904;5.530;2022-09-25T08:58:26;4.75;;;1.48;;
11066;SDS011;29763;50.904;5.530;2022-09-25T09:00:57;5.40;;;1.40;;
11066;SDS011;29763;50.904;5.530;2022-09-25T09:03:32;5.80;;;1.88;;
11066;SDS011;29763;50.904;5.530;2022-09-25T09:06:13;6.97;;;1.58;;
11066;SDS011;29763;50.904;5.530;2022-09-25T09:08:50;5.00;;;1.60;;
11066;SDS011;29763;50.904;5.530;2022-09-25T09:14:03;4.45;;;1.48;;
11066;SDS011;29763;50.904;5.530;2022-09-25T09:19:28;3.90;;;1.55;;
11066;SDS011;29763;50.904;5.530;2022-09-25T09:22:08;6.03;;;1.63;;
11066;SDS011;29763;50.904;5.530;2022-09-25T09:36:42;4.65;;;1.40;;
11066;SDS011;29763;50.904;5.530;2022-09-25T09:39:55;2.85;;;1.20;;
11066;SDS011;29763;50.904;5.530;2022-09-25T09:54:14;3.13;;;1.20;;
11066;SDS011;29763;50.904;5.530;2022-09-25T09:56:47;2.78;;;1.20;;
11066;SDS011;29763;50.904;5.530;2022-09-25T09:59:18;4.25;;;1.30;;
11066;SDS011;29763;50.904;5.530;2022-09-25T10:01:59;3.00;;;1.42;;
11066;SDS011;29763;50.904;5.530;2022-09-25T10:04:30;4.78;;;1.42;;
11066;SDS011;29763;50.904;5.530;2022-09-25T10:07:04;3.13;;;1.15;;
11066;SDS011;29763;50.904;5.530;2022-09-25T10:09:42;4.07;;;1.50;;
11066;SDS011;29763;50.904;5.530;2022-09-25T10:12:42;3.90;;;1.50;;
11066;SDS011;29763;50.904;5.530;2022-09-25T10:15:02;4.32;;;1.40;;
11066;SDS011;29763;50.904;5.530;2022-09-25T10:17:31;4.60;;;1.50;;
11066;SDS011;29763;50.904;5.530;2022-09-25T10:20:23;4.82;;;1.40;;
11066;SDS011;29763;50.904;5.530;2022-09-25T10:22:49;4.95;;;1.35;;
11066;SDS011;29763;50.904;5.530;2022-09-25T10:25:39;5.43;;;1.50;;
11066;SDS011;29763;50.904;5.530;2022-09-25T10:28:47;3.40;;;1.50;;
11066;SDS011;29763;50.904;5.530;2022-09-25T10:30:56;5.07;;;1.52;;
11066;SDS011;29763;50.904;5.530;2022-09-25T10:33:28;4.72;;;1.48;;
11066;SDS011;29763;50.904;5.530;2022-09-25T10:35:57;4.10;;;1.33;;
11066;SDS011;29763;50.904;5.530;2022-09-25T10:41:45;3.40;;;1.25;;
11066;SDS011;29763;50.904;5.530;2022-09-25T10:44:22;3.83;;;1.45;;
11066;SDS011;29763;50.904;5.530;2022-09-25T10:50:24;2.38;;;0.85;;
11066;SDS011;29763;50.904;5.530;2022-09-25T10:52:56;2.83;;;1.30;;
11066;SDS011;29763;50.904;5.530;2022-09-25T10:55:30;4.10;;;1.30;;
11066;SDS011;29763;50.904;5.530;2022-09-25T11:00:55;3.28;;;1.10;;
11066;SDS011;29763;50.904;5.530;2022-09-25T11:03:32;2.53;;;1.10;;
11066;SDS011;29763;50.904;5.530;2022-09-25T11:06:08;3.33;;;1.27;;
11066;SDS011;29763;50.904;5.530;2022-09-25T11:11:26;3.92;;;1.38;;
11066;SDS011;29763;50.904;5.530;2022-09-25T11:13:57;5.63;;;1.40;;
11066;SDS011;29763;50.904;5.530;2022-09-25T11:16:40;3.88;;;1.30;;
11066;SDS011;29763;50.904;5.530;2022-09-25T11:25:24;4.13;;;1.20;;
11066;SDS011;29763;50.904;5.530;2022-09-25T11:28:45;3.35;;;1.17;;
11066;SDS011;29763;50.904;5.530;2022-09-25T11:34:31;3.58;;;1.45;;
11066;SDS011;29763;50.904;5.530;2022-09-25T11:37:20;3.90;;;1.20;;
11066;SDS011;29763;50.904;5.530;2022-09-25T11:43:08;4.15;;;1.40;;
11066;SDS011;29763;50.904;5.530;2022-09-25T11:57:14;3.00;;;1.20;;
11066;SDS011;29763;50.904;5.530;2022-09-25T12:05:34;3.60;;;1.25;;
11066;SDS011;29763;50.904;5.530;2022-09-25T12:11:22;3.03;;;1.25;;
11066;SDS011;29763;50.904;5.530;2022-09-25T12:25:49;2.10;;;0.95;;
11066;SDS011;29763;50.904;5.530;2022-09-25T12:31:38;3.80;;;1.30;;
11066;SDS011;29763;50.904;5.530;2022-09-25T12:40:25;3.50;;;1.10;;
11066;SDS011;29763;50.904;5.530;2022-09-25T12:52:23;4.90;;;1.40;;
11066;SDS011;29763;50.904;5.530;2022-09-25T12:57:46;4.13;;;1.58;;
11066;SDS011;29763;50.904;5.530;2022-09-25T13:00:21;4.85;;;1.55;;
11066;SDS011;29763;50.904;5.530;2022-09-25T13:06:02;2.70;;;1.48;;
11066;SDS011;29763;50.904;5.530;2022-09-25T13:08:47;3.75;;;1.20;;
11066;SDS011;29763;50.904;5.530;2022-09-25T13:13:50;4.90;;;1.40;;
11066;SDS011;29763;50.904;5.530;2022-09-25T13:16:18;3.33;;;1.30;;
11066;SDS011;29763;50.904;5.530;2022-09-25T13:18:49;3.10;;;1.27;;
11066;SDS011;29763;50.904;5.530;2022-09-25T13:25:37;3.30;;;1.30;;
11066;SDS011;29763;50.904;5.530;2022-09-25T13:28:08;3.58;;;1.25;;
11066;SDS011;29763;50.904;5.530;2022-09-25T13:30:56;4.80;;;1.13;;
11066;SDS011;29763;50.904;5.530;2022-09-25T13:33:28;2.33;;;1.35;;
11066;SDS011;29763;50.904;5.530;2022-09-25T13:36:05;3.33;;;1.30;;
11066;SDS011;29763;50.904;5.530;2022-09-25T13:38:43;4.75;;;1.60;;
11066;SDS011;29763;50.904;5.530;2022-09-25T13:41:29;3.05;;;1.15;;
11066;SDS011;29763;50.904;5.530;2022-09-25T13:58:28;1.98;;;1.23;;
11066;SDS011;29763;50.904;5.530;2022-09-25T14:01:19;2.88;;;1.27;;
11066;SDS011;29763;50.904;5.530;2022-09-25T14:04:00;4.63;;;1.20;;
11066;SDS011;29763;50.904;5.530;2022-09-25T14:06:40;3.78;;;1.27;;
11066;SDS011;29763;50.904;5.530;2022-09-25T14:09:10;3.50;;;1.30;;
11066;SDS011;29763;50.904;5.530;2022-09-25T14:14:48;3.08;;;1.48;;
11066;SDS011;29763;50.904;5.530;2022-09-25T14:17:26;2.70;;;1.30;;
11066;SDS011;29763;50.904;5.530;2022-09-25T14:19:58;1.80;;;1.30;;
11066;SDS011;29763;50.904;5.530;2022-09-25T14:22:31;2.30;;;1.20;;
11066;SDS011;29763;50.904;5.530;2022-09-25T14:28:00;4.47;;;1.70;;
11066;SDS011;29763;50.904;5.530;2022-09-25T14:39:36;4.65;;;1.60;;
11066;SDS011;29763;50.904;5.530;2022-09-25T14:48:05;5.53;;;1.65;;
11066;SDS011;29763;50.904;5.530;2022-09-25T14:50:56;3.70;;;1.35;;
11066;SDS011;29763;50.904;5.530;2022-09-25T14:55:56;4.10;;;1.20;;
11066;SDS011;29763;50.904;5.530;2022-09-25T14:58:26;3.10;;;1.30;;
11066;SDS011;29763;50.904;5.530;2022-09-25T15:00:57;4.47;;;1.35;;
11066;SDS011;29763;50.904;5.530;2022-09-25T15:03:31;3.38;;;1.00;;
11066;SDS011;29763;50.904;5.530;2022-09-25T15:06:05;2.30;;;1.40;;
11066;SDS011;29763;50.904;5.530;2022-09-25T15:08:35;2.63;;;1.40;;
11066;SDS011;29763;50.904;5.530;2022-09-25T15:11:08;2.58;;;1.08;;
11066;SDS011;29763;50.904;5.530;2022-09-25T15:13:34;2.92;;;1.35;;
11066;SDS011;29763;50.904;5.530;2022-09-25T15:16:00;3.40;;;1.80;;
11066;SDS011;29763;50.904;5.530;2022-09-25T15:18:51;2.78;;;1.17;;
11066;SDS011;29763;50.904;5.530;2022-09-25T15:21:27;2.53;;;1.30;;
11066;SDS011;29763;50.904;5.530;2022-09-25T15:23:56;6.32;;;1.35;;
11066;SDS011;29763;50.904;5.530;2022-09-25T15:26:26;2.70;;;1.15;;
11066;SDS011;29763;50.904;5.530;2022-09-25T15:28:57;4.65;;;1.20;;
11066;SDS011;29763;50.904;5.530;2022-09-25T15:31:23;6.22;;;1.70;;
11066;SDS011;29763;50.904;5.530;2022-09-25T15:34:02;2.92;;;1.40;;
11066;SDS011;29763;50.904;5.530;2022-09-25T15:36:35;3.97;;;1.17;;
11066;SDS011;29763;50.904;5.530;2022-09-25T15:39:11;2.42;;;1.38;;
11066;SDS011;29763;50.904;5.530;2022-09-25T15:41:43;3.30;;;1.10;;
11066;SDS011;29763;50.904;5.530;2022-09-25T15:44:27;2.13;;;1.20;;
11066;SDS011;29763;50.904;5.530;2022-09-25T15:46:54;3.50;;;1.27;;
11066;SDS011;29763;50.904;5.530;2022-09-25T15:52:15;3.55;;;1.23;;
11066;SDS011;29763;50.904;5.530;2022-09-25T15:55:04;4.10;;;1.27;;
11066;SDS011;29763;50.904;5.530;2022-09-25T15:57:36;2.95;;;1.17;;
11066;SDS011;29763;50.904;5.530;2022-09-25T16:00:06;3.08;;;1.20;;
11066;SDS011;29763;50.904;5.530;2022-09-25T16:03:22;2.80;;;1.20;;
11066;SDS011;29763;50.904;5.530;2022-09-25T16:06:13;4.43;;;1.15;;
11066;SDS011;29763;50.904;5.530;2022-09-25T16:08:42;2.63;;;1.35;;
11066;SDS011;29763;50.904;5.530;2022-09-25T16:13:49;3.25;;;1.33;;
11066;SDS011;29763;50.904;5.530;2022-09-25T16:16:22;3.72;;;1.25;;
11066;SDS011;29763;50.904;5.530;2022-09-25T16:18:54;1.95;;;1.27;;
11066;SDS011;29763;50.904;5.530;2022-09-25T16:21:32;3.78;;;1.40;;
11066;SDS011;29763;50.904;5.530;2022-09-25T16:24:06;4.53;;;1.40;;
11066;SDS011;29763;50.904;5.530;2022-09-25T16:26:42;3.38;;;1.30;;
11066;SDS011;29763;50.904;5.530;2022-09-25T16:31:37;5.80;;;1.60;;
11066;SDS011;29763;50.904;5.530;2022-09-25T16:34:06;3.17;;;1.38;;
11066;SDS011;29763;50.904;5.530;2022-09-25T16:36:53;3.72;;;1.42;;
11066;SDS011;29763;50.904;5.530;2022-09-25T16:39:24;2.85;;;1.33;;
11066;SDS011;29763;50.904;5.530;2022-09-25T16:41:58;3.80;;;1.08;;
11066;SDS011;29763;50.904;5.530;2022-09-25T16:44:50;3.80;;;1.35;;
11066;SDS011;29763;50.904;5.530;2022-09-25T16:47:40;5.47;;;1.40;;
11066;SDS011;29763;50.904;5.530;2022-09-25T16:50:08;4.90;;;2.00;;
11066;SDS011;29763;50.904;5.530;2022-09-25T16:52:43;3.55;;;1.67;;
11066;SDS011;29763;50.904;5.530;2022-09-25T16:55:14;5.40;;;1.77;;
11066;SDS011;29763;50.904;5.530;2022-09-25T16:58:04;4.22;;;1.80;;
11066;SDS011;29763;50.904;5.530;2022-09-25T17:00:35;3.05;;;1.70;;
11066;SDS011;29763;50.904;5.530;2022-09-25T17:03:09;2.42;;;1.42;;
11066;SDS011;29763;50.904;5.530;2022-09-25T17:05:36;8.27;;;2.28;;
11066;SDS011;29763;50.904;5.530;2022-09-25T17:08:36;6.75;;;2.72;;
11066;SDS011;29763;50.904;5.530;2022-09-25T17:10:55;4.95;;;2.05;;
11066;SDS011;29763;50.904;5.530;2022-09-25T17:13:22;5.88;;;2.47;;
11066;SDS011;29763;50.904;5.530;2022-09-25T17:15:51;5.00;;;1.85;;
11066;SDS011;29763;50.904;5.530;2022-09-25T17:18:21;4.93;;;2.05;;
11066;SDS011;29763;50.904;5.530;2022-09-25T17:20:50;7.05;;;2.13;;
11066;SDS011;29763;50.904;5.530;2022-09-25T17:23:18;5.18;;;1.92;;
11066;SDS011;29763;50.904;5.530;2022-09-25T17:25:46;8.15;;;2.40;;
11066;SDS011;29763;50.904;5.530;2022-09-25T17:28:14;5.53;;;2.30;;
11066;SDS011;29763;50.904;5.530;2022-09-25T17:30:41;5.65;;;2.50;;
11066;SDS011;29763;50.904;5.530;2022-09-25T17:33:28;6.18;;;2.28;;
11066;SDS011;29763;50.904;5.530;2022-09-25T17:36:00;7.00;;;2.42;;
11066;SDS011;29763;50.904;5.530;2022-09-25T17:38:30;6.82;;;2.72;;
11066;SDS011;29763;50.904;5.530;2022-09-25T17:40:58;7.35;;;2.60;;
11066;SDS011;29763;50.904;5.530;2022-09-25T17:43:27;4.90;;;2.15;;
11066;SDS011;29763;50.904;5.530;2022-09-25T17:45:56;4.10;;;1.83;;
11066;SDS011;29763;50.904;5.530;2022-09-25T17:48:24;4.88;;;2.50;;
11066;SDS011;29763;50.904;5.530;2022-09-25T17:53:26;6.10;;;3.67;;
11066;SDS011;29763;50.904;5.530;2022-09-25T17:55:55;3.80;;;2.20;;
11066;SDS011;29763;50.904;5.530;2022-09-25T17:58:22;3.15;;;2.45;;
11066;SDS011;29763;50.904;5.530;2022-09-25T18:00:51;5.10;;;2.40;;
11066;SDS011;29763;50.904;5.530;2022-09-25T18:03:19;8.65;;;3.17;;
11066;SDS011;29763;50.904;5.530;2022-09-25T18:05:45;9.10;;;2.45;;
11066;SDS011;29763;50.904;5.530;2022-09-25T18:08:11;4.15;;;2.17;;
11066;SDS011;29763;50.904;5.530;2022-09-25T18:10:38;4.32;;;2.08;;
11066;SDS011;29763;50.904;5.530;2022-09-25T18:13:05;6.50;;;2.45;;
11066;SDS011;29763;50.904;5.530;2022-09-25T18:15:34;5.13;;;2.05;;
11066;SDS011;29763;50.904;5.530;2022-09-25T18:18:00;3.22;;;1.63;;
11066;SDS011;29763;50.904;5.530;2022-09-25T18:20:26;3.65;;;1.50;;
11066;SDS011;29763;50.904;5.530;2022-09-25T18:23:11;4.55;;;1.52;;
11066;SDS011;29763;50.904;5.530;2022-09-25T18:25:37;1.63;;;1.40;;
11066;SDS011;29763;50.904;5.530;2022-09-25T18:28:05;4.72;;;1.80;;
11066;SDS011;29763;50.904;5.530;2022-09-25T18:30:34;3.15;;;1.80;;
11066;SDS011;29763;50.904;5.530;2022-09-25T18:33:02;2.50;;;1.80;;
11066;SDS011;29763;50.904;5.530;2022-09-25T18:35:29;5.10;;;1.90;;
11066;SDS011;29763;50.904;5.530;2022-09-25T18:37:58;7.00;;;1.67;;
11066;SDS011;29763;50.904;5.530;2022-09-25T18:40:24;5.03;;;1.90;;
11066;SDS011;29763;50.904;5.530;2022-09-25T18:42:50;3.55;;;1.70;;
11066;SDS011;29763;50.904;5.530;2022-09-25T18:45:18;5.05;;;1.60;;
11066;SDS011;29763;50.904;5.530;2022-09-25T18:47:45;4.22;;;1.75;;
11066;SDS011;29763;50.904;5.530;2022-09-25T18:50:13;3.92;;;1.60;;
11066;SDS011;29763;50.904;5.530;2022-09-25T18:52:40;4.50;;;2.10;;
11066;SDS011;29763;50.904;5.530;2022-09-25T18:55:06;7.55;;;2.20;;